sensor_id;sensor_type;location;lat;lon;timestamp;temperature;humidity
67131;HTU21D;54051;53.464;49.532;2023-04-03T00:00:09;4.73;71.71
67131;HTU21D;54051;53.464;49.532;2023-04-03T00:02:35;4.62;72.24
67131;HTU21D;54051;53.464;49.532;2023-04-03T00:05:02;4.53;72.38
67131;HTU21D;54051;53.464;49.532;2023-04-03T00:07:28;4.46;74.98
67131;HTU21D;54051;53.464;49.532;2023-04-03T00:09:54;4.35;76.98
67131;HTU21D;54051;53.464;49.532;2023-04-03T00:12:21;4.32;77.61
67131;HTU21D;54051;53.464;49.532;2023-04-03T00:14:47;4.31;77.73
67131;HTU21D;54051;53.464;49.532;2023-04-03T00:17:13;4.28;76.98
67131;HTU21D;54051;53.464;49.532;2023-04-03T00:19:39;4.22;77.02
67131;HTU21D;54051;53.464;49.532;2023-04-03T00:22:06;4.53;73.45
67131;HTU21D;54051;53.464;49.532;2023-04-03T00:24:32;4.63;71.84
67131;HTU21D;54051;53.464;49.532;2023-04-03T00:26:58;4.86;71.26
67131;HTU21D;54051;53.464;49.532;2023-04-03T00:29:25;4.84;70.97
67131;HTU21D;54051;53.464;49.532;2023-04-03T00:31:51;4.77;72.14
67131;HTU21D;54051;53.464;49.532;2023-04-03T00:34:17;4.59;72.83
67131;HTU21D;54051;53.464;49.532;2023-04-03T00:36:43;4.73;71.46
67131;HTU21D;54051;53.464;49.532;2023-04-03T00:39:10;4.87;69.60
67131;HTU21D;54051;53.464;49.532;2023-04-03T00:41:36;5.12;68.42
67131;HTU21D;54051;53.464;49.532;2023-04-03T00:46:53;5.02;71.86
67131;HTU21D;54051;53.464;49.532;2023-04-03T00:49:20;4.77;72.39
67131;HTU21D;54051;53.464;49.532;2023-04-03T00:51:46;4.72;70.65
67131;HTU21D;54051;53.464;49.532;2023-04-03T00:54:13;4.87;69.02
67131;HTU21D;54051;53.464;49.532;2023-04-03T00:56:39;5.03;68.15
67131;HTU21D;54051;53.464;49.532;2023-04-03T00:59:10;5.08;68.75
67131;HTU21D;54051;53.464;49.532;2023-04-03T01:01:37;5.09;67.86
67131;HTU21D;54051;53.464;49.532;2023-04-03T01:04:04;5.11;67.72
67131;HTU21D;54051;53.464;49.532;2023-04-03T01:06:36;5.10;67.88
67131;HTU21D;54051;53.464;49.532;2023-04-03T01:09:03;5.11;67.78
67131;HTU21D;54051;53.464;49.532;2023-04-03T01:11:30;5.15;67.60
67131;HTU21D;54051;53.464;49.532;2023-04-03T01:13:56;5.13;68.10
67131;HTU21D;54051;53.464;49.532;2023-04-03T01:16:23;5.13;67.39
67131;HTU21D;54051;53.464;49.532;2023-04-03T01:18:49;5.16;67.36
67131;HTU21D;54051;53.464;49.532;2023-04-03T01:27:05;5.25;66.80
67131;HTU21D;54051;53.464;49.532;2023-04-03T01:29:31;5.25;66.88
67131;HTU21D;54051;53.464;49.532;2023-04-03T01:32:01;5.22;67.60
67131;HTU21D;54051;53.464;49.532;2023-04-03T01:34:28;5.12;68.10
67131;HTU21D;54051;53.464;49.532;2023-04-03T01:36:55;5.09;67.86
67131;HTU21D;54051;53.464;49.532;2023-04-03T01:39:22;5.12;67.27
67131;HTU21D;54051;53.464;49.532;2023-04-03T01:41:48;5.15;67.22
67131;HTU21D;54051;53.464;49.532;2023-04-03T01:44:15;5.15;67.09
67131;HTU21D;54051;53.464;49.532;2023-04-03T01:46:41;5.12;67.23
67131;HTU21D;54051;53.464;49.532;2023-04-03T01:49:09;5.11;67.29
67131;HTU21D;54051;53.464;49.532;2023-04-03T01:51:35;5.13;67.21
67131;HTU21D;54051;53.464;49.532;2023-04-03T01:54:01;5.19;67.05
67131;HTU21D;54051;53.464;49.532;2023-04-03T01:56:27;5.18;66.99
67131;HTU21D;54051;53.464;49.532;2023-04-03T01:58:53;5.17;67.09
67131;HTU21D;54051;53.464;49.532;2023-04-03T02:01:19;5.17;66.83
67131;HTU21D;54051;53.464;49.532;2023-04-03T02:03:45;5.16;66.88
67131;HTU21D;54051;53.464;49.532;2023-04-03T02:06:11;5.12;66.98
67131;HTU21D;54051;53.464;49.532;2023-04-03T02:08:37;5.12;69.73
67131;HTU21D;54051;53.464;49.532;2023-04-03T02:11:03;5.10;68.30
67131;HTU21D;54051;53.464;49.532;2023-04-03T02:13:29;5.15;67.66
67131;HTU21D;54051;53.464;49.532;2023-04-03T02:15:55;5.15;67.27
67131;HTU21D;54051;53.464;49.532;2023-04-03T02:18:21;5.16;67.28
67131;HTU21D;54051;53.464;49.532;2023-04-03T02:20:47;5.19;67.18
67131;HTU21D;54051;53.464;49.532;2023-04-03T02:23:14;5.25;66.80
67131;HTU21D;54051;53.464;49.532;2023-04-03T02:25:40;5.25;66.90
67131;HTU21D;54051;53.464;49.532;2023-04-03T02:28:06;5.27;67.34
67131;HTU21D;54051;53.464;49.532;2023-04-03T02:30:32;5.32;66.52
67131;HTU21D;54051;53.464;49.532;2023-04-03T02:32:58;5.41;66.02
67131;HTU21D;54051;53.464;49.532;2023-04-03T02:35:24;5.46;65.52
67131;HTU21D;54051;53.464;49.532;2023-04-03T02:37:50;5.47;65.33
67131;HTU21D;54051;53.464;49.532;2023-04-03T02:40:17;5.55;64.95
67131;HTU21D;54051;53.464;49.532;2023-04-03T02:42:43;5.57;64.60
67131;HTU21D;54051;53.464;49.532;2023-04-03T02:45:09;5.60;64.31
67131;HTU21D;54051;53.464;49.532;2023-04-03T02:47:35;5.68;64.17
67131;HTU21D;54051;53.464;49.532;2023-04-03T02:50:02;5.69;63.98
67131;HTU21D;54051;53.464;49.532;2023-04-03T02:52:28;5.69;64.15
67131;HTU21D;54051;53.464;49.532;2023-04-03T02:54:54;5.67;64.22
67131;HTU21D;54051;53.464;49.532;2023-04-03T02:57:20;5.68;64.07
67131;HTU21D;54051;53.464;49.532;2023-04-03T02:59:46;5.75;64.14
67131;HTU21D;54051;53.464;49.532;2023-04-03T03:02:12;5.86;63.56
67131;HTU21D;54051;53.464;49.532;2023-04-03T03:04:38;5.95;63.08
67131;HTU21D;54051;53.464;49.532;2023-04-03T03:07:05;5.89;63.34
67131;HTU21D;54051;53.464;49.532;2023-04-03T03:09:31;5.95;63.01
67131;HTU21D;54051;53.464;49.532;2023-04-03T03:12:00;5.99;63.10
67131;HTU21D;54051;53.464;49.532;2023-04-03T03:14:27;5.97;62.98
67131;HTU21D;54051;53.464;49.532;2023-04-03T03:16:53;5.95;63.26
67131;HTU21D;54051;53.464;49.532;2023-04-03T03:19:19;6.08;62.75
67131;HTU21D;54051;53.464;49.532;2023-04-03T03:21:45;6.14;62.41
67131;HTU21D;54051;53.464;49.532;2023-04-03T03:24:11;6.22;61.86
67131;HTU21D;54051;53.464;49.532;2023-04-03T03:26:37;6.28;61.89
67131;HTU21D;54051;53.464;49.532;2023-04-03T03:29:03;6.40;61.41
67131;HTU21D;54051;53.464;49.532;2023-04-03T03:31:30;6.46;61.05
67131;HTU21D;54051;53.464;49.532;2023-04-03T03:33:56;6.53;60.87
67131;HTU21D;54051;53.464;49.532;2023-04-03T03:36:22;6.65;60.67
67131;HTU21D;54051;53.464;49.532;2023-04-03T03:38:48;6.73;59.96
67131;HTU21D;54051;53.464;49.532;2023-04-03T03:41:14;6.86;59.64
67131;HTU21D;54051;53.464;49.532;2023-04-03T03:43:40;7.04;59.13
67131;HTU21D;54051;53.464;49.532;2023-04-03T03:46:06;7.22;58.45
67131;HTU21D;54051;53.464;49.532;2023-04-03T03:48:32;8.59;54.26
67131;HTU21D;54051;53.464;49.532;2023-04-03T03:50:59;11.69;45.10
67131;HTU21D;54051;53.464;49.532;2023-04-03T03:53:25;14.78;37.44
67131;HTU21D;54051;53.464;49.532;2023-04-03T03:55:51;16.25;33.82
67131;HTU21D;54051;53.464;49.532;2023-04-03T03:58:17;16.79;31.93
67131;HTU21D;54051;53.464;49.532;2023-04-03T04:00:43;17.49;30.81
67131;HTU21D;54051;53.464;49.532;2023-04-03T04:03:10;18.29;29.09
67131;HTU21D;54051;53.464;49.532;2023-04-03T04:05:36;18.51;28.77
67131;HTU21D;54051;53.464;49.532;2023-04-03T04:08:02;18.63;28.53
67131;HTU21D;54051;53.464;49.532;2023-04-03T04:10:28;19.07;27.16
67131;HTU21D;54051;53.464;49.532;2023-04-03T04:12:55;19.29;26.71
67131;HTU21D;54051;53.464;49.532;2023-04-03T04:15:21;18.95;27.11
67131;HTU21D;54051;53.464;49.532;2023-04-03T04:17:48;18.83;27.60
67131;HTU21D;54051;53.464;49.532;2023-04-03T04:20:14;19.43;26.33
67131;HTU21D;54051;53.464;49.532;2023-04-03T04:22:41;19.39;26.23
67131;HTU21D;54051;53.464;49.532;2023-04-03T04:25:08;19.98;25.23
67131;HTU21D;54051;53.464;49.532;2023-04-03T04:27:34;19.90;25.05
67131;HTU21D;54051;53.464;49.532;2023-04-03T04:30:00;18.96;27.16
67131;HTU21D;54051;53.464;49.532;2023-04-03T04:32:26;19.29;26.41
67131;HTU21D;54051;53.464;49.532;2023-04-03T04:34:53;19.94;25.86
67131;HTU21D;54051;53.464;49.532;2023-04-03T04:37:19;20.76;24.08
67131;HTU21D;54051;53.464;49.532;2023-04-03T04:39:45;20.53;24.17
67131;HTU21D;54051;53.464;49.532;2023-04-03T04:42:11;19.87;24.98
67131;HTU21D;54051;53.464;49.532;2023-04-03T04:44:39;19.63;25.60
67131;HTU21D;54051;53.464;49.532;2023-04-03T04:47:05;20.74;24.34
67131;HTU21D;54051;53.464;49.532;2023-04-03T04:49:32;21.50;22.53
67131;HTU21D;54051;53.464;49.532;2023-04-03T04:51:58;20.45;23.79
67131;HTU21D;54051;53.464;49.532;2023-04-03T04:54:24;20.19;24.53
67131;HTU21D;54051;53.464;49.532;2023-04-03T04:56:50;19.61;25.51
67131;HTU21D;54051;53.464;49.532;2023-04-03T04:59:17;20.40;24.34
67131;HTU21D;54051;53.464;49.532;2023-04-03T05:01:43;21.38;22.61
67131;HTU21D;54051;53.464;49.532;2023-04-03T05:04:10;21.31;22.27
67131;HTU21D;54051;53.464;49.532;2023-04-03T05:06:38;21.53;22.00
67131;HTU21D;54051;53.464;49.532;2023-04-03T05:09:05;21.75;22.04
67131;HTU21D;54051;53.464;49.532;2023-04-03T05:11:31;22.84;20.25
67131;HTU21D;54051;53.464;49.532;2023-04-03T05:13:57;22.99;19.62
67131;HTU21D;54051;53.464;49.532;2023-04-03T05:16:24;22.83;19.97
67131;HTU21D;54051;53.464;49.532;2023-04-03T05:18:51;23.25;19.35
67131;HTU21D;54051;53.464;49.532;2023-04-03T05:21:17;23.71;18.77
67131;HTU21D;54051;53.464;49.532;2023-04-03T05:23:44;24.40;17.78
67131;HTU21D;54051;53.464;49.532;2023-04-03T05:26:10;25.22;17.03
67131;HTU21D;54051;53.464;49.532;2023-04-03T05:28:37;26.18;15.52
67131;HTU21D;54051;53.464;49.532;2023-04-03T05:31:03;25.45;16.14
67131;HTU21D;54051;53.464;49.532;2023-04-03T05:33:29;25.40;16.13
67131;HTU21D;54051;53.464;49.532;2023-04-03T05:35:55;26.43;15.15
67131;HTU21D;54051;53.464;49.532;2023-04-03T05:38:22;27.08;14.43
67131;HTU21D;54051;53.464;49.532;2023-04-03T05:40:48;26.91;14.55
67131;HTU21D;54051;53.464;49.532;2023-04-03T05:43:22;26.22;15.42
67131;HTU21D;54051;53.464;49.532;2023-04-03T05:45:48;26.43;15.07
67131;HTU21D;54051;53.464;49.532;2023-04-03T05:48:14;25.81;15.77
67131;HTU21D;54051;53.464;49.532;2023-04-03T05:50:40;24.85;17.07
67131;HTU21D;54051;53.464;49.532;2023-04-03T05:53:18;25.77;15.80
67131;HTU21D;54051;53.464;49.532;2023-04-03T05:55:44;25.80;15.89
67131;HTU21D;54051;53.464;49.532;2023-04-03T05:58:11;25.49;16.09
67131;HTU21D;54051;53.464;49.532;2023-04-03T06:00:38;25.72;15.87
67131;HTU21D;54051;53.464;49.532;2023-04-03T06:03:04;25.66;15.91
67131;HTU21D;54051;53.464;49.532;2023-04-03T06:05:31;25.00;16.25
67131;HTU21D;54051;53.464;49.532;2023-04-03T06:07:57;24.95;16.93
67131;HTU21D;54051;53.464;49.532;2023-04-03T06:10:23;26.65;14.88
67131;HTU21D;54051;53.464;49.532;2023-04-03T06:12:50;27.58;13.61
67131;HTU21D;54051;53.464;49.532;2023-04-03T06:15:17;27.72;12.71
67131;HTU21D;54051;53.464;49.532;2023-04-03T06:17:43;26.57;14.52
67131;HTU21D;54051;53.464;49.532;2023-04-03T06:20:09;26.51;14.51
67131;HTU21D;54051;53.464;49.532;2023-04-03T06:22:35;25.37;15.87
67131;HTU21D;54051;53.464;49.532;2023-04-03T06:25:02;24.57;17.36
67131;HTU21D;54051;53.464;49.532;2023-04-03T06:27:28;25.48;16.70
67131;HTU21D;54051;53.464;49.532;2023-04-03T06:29:54;26.09;15.56
67131;HTU21D;54051;53.464;49.532;2023-04-03T06:32:21;25.81;15.96
67131;HTU21D;54051;53.464;49.532;2023-04-03T06:34:47;26.95;14.26
67131;HTU21D;54051;53.464;49.532;2023-04-03T06:37:16;25.95;15.22
67131;HTU21D;54051;53.464;49.532;2023-04-03T06:39:43;26.10;14.90
67131;HTU21D;54051;53.464;49.532;2023-04-03T06:42:09;26.22;14.87
67131;HTU21D;54051;53.464;49.532;2023-04-03T06:44:35;27.15;13.61
67131;HTU21D;54051;53.464;49.532;2023-04-03T06:47:02;27.16;13.60
67131;HTU21D;54051;53.464;49.532;2023-04-03T06:49:28;26.64;14.41
67131;HTU21D;54051;53.464;49.532;2023-04-03T06:51:55;27.44;13.32
67131;HTU21D;54051;53.464;49.532;2023-04-03T06:54:22;27.53;13.44
67131;HTU21D;54051;53.464;49.532;2023-04-03T06:56:48;27.07;13.35
67131;HTU21D;54051;53.464;49.532;2023-04-03T06:59:14;26.84;13.52
67131;HTU21D;54051;53.464;49.532;2023-04-03T07:01:40;25.76;15.41
67131;HTU21D;54051;53.464;49.532;2023-04-03T07:04:08;27.04;13.14
67131;HTU21D;54051;53.464;49.532;2023-04-03T07:06:34;27.12;14.02
67131;HTU21D;54051;53.464;49.532;2023-04-03T07:09:01;28.14;12.30
67131;HTU21D;54051;53.464;49.532;2023-04-03T07:11:27;27.14;13.24
67131;HTU21D;54051;53.464;49.532;2023-04-03T07:13:53;26.17;13.87
67131;HTU21D;54051;53.464;49.532;2023-04-03T07:16:20;26.13;14.04
67131;HTU21D;54051;53.464;49.532;2023-04-03T07:18:46;27.00;13.19
67131;HTU21D;54051;53.464;49.532;2023-04-03T07:21:13;27.57;12.49
67131;HTU21D;54051;53.464;49.532;2023-04-03T07:23:39;26.71;13.59
67131;HTU21D;54051;53.464;49.532;2023-04-03T07:26:05;26.07;14.24
67131;HTU21D;54051;53.464;49.532;2023-04-03T07:28:32;26.53;14.05
67131;HTU21D;54051;53.464;49.532;2023-04-03T07:31:07;25.68;14.65
67131;HTU21D;54051;53.464;49.532;2023-04-03T07:33:38;26.58;13.80
67131;HTU21D;54051;53.464;49.532;2023-04-03T07:36:06;25.63;14.06
67131;HTU21D;54051;53.464;49.532;2023-04-03T07:38:34;24.39;15.93
67131;HTU21D;54051;53.464;49.532;2023-04-03T07:41:01;24.85;15.37
67131;HTU21D;54051;53.464;49.532;2023-04-03T07:43:27;26.07;14.00
67131;HTU21D;54051;53.464;49.532;2023-04-03T07:45:53;25.83;14.39
67131;HTU21D;54051;53.464;49.532;2023-04-03T07:48:22;26.86;13.35
67131;HTU21D;54051;53.464;49.532;2023-04-03T07:50:49;27.67;11.79
67131;HTU21D;54051;53.464;49.532;2023-04-03T07:53:15;27.15;12.05
67131;HTU21D;54051;53.464;49.532;2023-04-03T07:55:41;27.40;11.94
67131;HTU21D;54051;53.464;49.532;2023-04-03T07:58:11;28.37;10.75
67131;HTU21D;54051;53.464;49.532;2023-04-03T08:00:37;27.98;10.88
67131;HTU21D;54051;53.464;49.532;2023-04-03T08:03:04;28.77;10.37
67131;HTU21D;54051;53.464;49.532;2023-04-03T08:05:31;28.63;10.17
67131;HTU21D;54051;53.464;49.532;2023-04-03T08:07:57;27.86;10.37
67131;HTU21D;54051;53.464;49.532;2023-04-03T08:10:23;27.51;11.52
67131;HTU21D;54051;53.464;49.532;2023-04-03T08:12:49;28.12;11.02
67131;HTU21D;54051;53.464;49.532;2023-04-03T08:15:15;26.96;11.77
67131;HTU21D;54051;53.464;49.532;2023-04-03T08:17:42;26.19;12.81
67131;HTU21D;54051;53.464;49.532;2023-04-03T08:20:10;27.16;12.05
67131;HTU21D;54051;53.464;49.532;2023-04-03T08:22:36;26.16;12.33
67131;HTU21D;54051;53.464;49.532;2023-04-03T08:25:02;26.64;11.99
67131;HTU21D;54051;53.464;49.532;2023-04-03T08:27:28;26.84;11.67
67131;HTU21D;54051;53.464;49.532;2023-04-03T08:29:55;27.61;10.91
67131;HTU21D;54051;53.464;49.532;2023-04-03T08:32:22;27.89;9.74
67131;HTU21D;54051;53.464;49.532;2023-04-03T08:35:03;28.16;8.88
67131;HTU21D;54051;53.464;49.532;2023-04-03T08:37:30;27.30;9.44
67131;HTU21D;54051;53.464;49.532;2023-04-03T08:39:56;25.77;10.45
67131;HTU21D;54051;53.464;49.532;2023-04-03T08:45:12;26.21;10.83
67131;HTU21D;54051;53.464;49.532;2023-04-03T08:50:44;25.90;10.21
67131;HTU21D;54051;53.464;49.532;2023-04-03T08:53:15;25.17;11.51
67131;HTU21D;54051;53.464;49.532;2023-04-03T08:55:46;24.50;12.01
67131;HTU21D;54051;53.464;49.532;2023-04-03T09:00:49;23.69;12.48
67131;HTU21D;54051;53.464;49.532;2023-04-03T09:03:18;22.24;14.66
67131;HTU21D;54051;53.464;49.532;2023-04-03T09:08:30;21.05;15.69
67131;HTU21D;54051;53.464;49.532;2023-04-03T09:14:02;20.06;17.45
67131;HTU21D;54051;53.464;49.532;2023-04-03T09:24:41;17.94;30.86
67131;HTU21D;54051;53.464;49.532;2023-04-03T09:27:10;18.04;29.16
67131;HTU21D;54051;53.464;49.532;2023-04-03T09:29:42;17.72;28.81
67131;HTU21D;54051;53.464;49.532;2023-04-03T09:32:29;17.45;28.87
67131;HTU21D;54051;53.464;49.532;2023-04-03T09:37:50;17.69;28.48
67131;HTU21D;54051;53.464;49.532;2023-04-03T09:42:54;17.77;28.55
67131;HTU21D;54051;53.464;49.532;2023-04-03T09:45:38;17.80;28.39
67131;HTU21D;54051;53.464;49.532;2023-04-03T09:50:53;17.67;22.87
67131;HTU21D;54051;53.464;49.532;2023-04-03T09:55:56;17.21;28.58
67131;HTU21D;54051;53.464;49.532;2023-04-03T10:01:01;17.67;24.25
67131;HTU21D;54051;53.464;49.532;2023-04-03T10:03:35;18.03;20.68
67131;HTU21D;54051;53.464;49.532;2023-04-03T10:06:03;18.18;21.08
67131;HTU21D;54051;53.464;49.532;2023-04-03T10:08:33;18.06;21.65
67131;HTU21D;54051;53.464;49.532;2023-04-03T10:11:16;18.04;25.09
67131;HTU21D;54051;53.464;49.532;2023-04-03T10:13:55;18.27;23.28
67131;HTU21D;54051;53.464;49.532;2023-04-03T10:27:44;17.79;18.94
67131;HTU21D;54051;53.464;49.532;2023-04-03T10:33:01;17.39;17.84
67131;HTU21D;54051;53.464;49.532;2023-04-03T10:41:10;17.26;18.32
67131;HTU21D;54051;53.464;49.532;2023-04-03T10:44:04;17.23;18.45
67131;HTU21D;54051;53.464;49.532;2023-04-03T10:46:40;17.40;21.30
67131;HTU21D;54051;53.464;49.532;2023-04-03T10:51:48;17.06;19.83
67131;HTU21D;54051;53.464;49.532;2023-04-03T10:54:49;17.14;20.69
67131;HTU21D;54051;53.464;49.532;2023-04-03T10:57:12;17.17;21.80
67131;HTU21D;54051;53.464;49.532;2023-04-03T11:00:04;17.10;22.03
67131;HTU21D;54051;53.464;49.532;2023-04-03T11:02:41;17.10;21.62
67131;HTU21D;54051;53.464;49.532;2023-04-03T11:08:03;17.17;22.13
67131;HTU21D;54051;53.464;49.532;2023-04-03T11:13:14;17.29;22.91
67131;HTU21D;54051;53.464;49.532;2023-04-03T11:15:43;17.39;24.04
67131;HTU21D;54051;53.464;49.532;2023-04-03T11:18:28;17.46;20.82
67131;HTU21D;54051;53.464;49.532;2023-04-03T11:23:56;17.68;21.63
67131;HTU21D;54051;53.464;49.532;2023-04-03T11:26:35;17.68;21.32
67131;HTU21D;54051;53.464;49.532;2023-04-03T11:29:06;17.48;22.11
67131;HTU21D;54051;53.464;49.532;2023-04-03T11:34:36;17.03;22.50
67131;HTU21D;54051;53.464;49.532;2023-04-03T11:40:02;17.06;23.91
67131;HTU21D;54051;53.464;49.532;2023-04-03T11:42:41;17.08;23.46
67131;HTU21D;54051;53.464;49.532;2023-04-03T11:48:04;17.24;23.27
67131;HTU21D;54051;53.464;49.532;2023-04-03T11:53:02;17.46;23.27
67131;HTU21D;54051;53.464;49.532;2023-04-03T12:08:52;17.60;22.76
67131;HTU21D;54051;53.464;49.532;2023-04-03T12:11:30;17.50;22.56
67131;HTU21D;54051;53.464;49.532;2023-04-03T12:16:24;17.64;22.26
67131;HTU21D;54051;53.464;49.532;2023-04-03T12:26:47;17.75;20.21
67131;HTU21D;54051;53.464;49.532;2023-04-03T12:29:24;17.82;19.79
67131;HTU21D;54051;53.464;49.532;2023-04-03T12:37:40;17.23;21.85
67131;HTU21D;54051;53.464;49.532;2023-04-03T12:40:16;17.19;21.65
67131;HTU21D;54051;53.464;49.532;2023-04-03T12:45:58;17.36;22.02
67131;HTU21D;54051;53.464;49.532;2023-04-03T12:48:28;17.34;20.74
67131;HTU21D;54051;53.464;49.532;2023-04-03T12:50:56;17.46;20.87
67131;HTU21D;54051;53.464;49.532;2023-04-03T12:53:31;17.47;21.09
67131;HTU21D;54051;53.464;49.532;2023-04-03T12:56:29;17.39;21.69
67131;HTU21D;54051;53.464;49.532;2023-04-03T12:59:19;17.35;21.63
67131;HTU21D;54051;53.464;49.532;2023-04-03T13:01:57;17.28;20.66
67131;HTU21D;54051;53.464;49.532;2023-04-03T13:04:24;17.29;20.58
67131;HTU21D;54051;53.464;49.532;2023-04-03T13:06:50;17.33;21.31
67131;HTU21D;54051;53.464;49.532;2023-04-03T13:09:21;17.33;21.10
67131;HTU21D;54051;53.464;49.532;2023-04-03T13:11:49;17.31;21.34
67131;HTU21D;54051;53.464;49.532;2023-04-03T13:14:22;17.32;21.14
67131;HTU21D;54051;53.464;49.532;2023-04-03T13:16:56;17.29;20.74
67131;HTU21D;54051;53.464;49.532;2023-04-03T13:19:27;17.21;21.44
67131;HTU21D;54051;53.464;49.532;2023-04-03T13:22:01;17.03;21.68
67131;HTU21D;54051;53.464;49.532;2023-04-03T13:24:30;16.87;21.60
67131;HTU21D;54051;53.464;49.532;2023-04-03T13:26:59;16.86;24.43
67131;HTU21D;54051;53.464;49.532;2023-04-03T13:29:29;16.79;21.87
67131;HTU21D;54051;53.464;49.532;2023-04-03T13:31:57;16.84;22.83
67131;HTU21D;54051;53.464;49.532;2023-04-03T13:34:25;16.89;22.51
67131;HTU21D;54051;53.464;49.532;2023-04-03T13:37:00;16.90;22.29
67131;HTU21D;54051;53.464;49.532;2023-04-03T13:39:34;16.95;23.01
67131;HTU21D;54051;53.464;49.532;2023-04-03T13:42:23;16.98;22.18
67131;HTU21D;54051;53.464;49.532;2023-04-03T13:45:10;17.06;21.72
67131;HTU21D;54051;53.464;49.532;2023-04-03T13:47:40;17.01;23.02
67131;HTU21D;54051;53.464;49.532;2023-04-03T13:50:20;16.87;22.64
67131;HTU21D;54051;53.464;49.532;2023-04-03T13:52:54;16.88;21.80
67131;HTU21D;54051;53.464;49.532;2023-04-03T13:55:28;16.92;22.12
67131;HTU21D;54051;53.464;49.532;2023-04-03T13:57:58;16.91;21.90
67131;HTU21D;54051;53.464;49.532;2023-04-03T14:00:50;16.87;22.25
67131;HTU21D;54051;53.464;49.532;2023-04-03T14:03:24;16.84;22.24
67131;HTU21D;54051;53.464;49.532;2023-04-03T14:05:51;16.84;21.82
67131;HTU21D;54051;53.464;49.532;2023-04-03T14:08:18;16.84;22.11
67131;HTU21D;54051;53.464;49.532;2023-04-03T14:10:44;16.80;21.75
67131;HTU21D;54051;53.464;49.532;2023-04-03T14:13:15;16.74;21.71
67131;HTU21D;54051;53.464;49.532;2023-04-03T14:15:42;16.66;22.27
67131;HTU21D;54051;53.464;49.532;2023-04-03T14:18:13;16.59;21.71
67131;HTU21D;54051;53.464;49.532;2023-04-03T14:20:40;16.59;21.05
67131;HTU21D;54051;53.464;49.532;2023-04-03T14:23:06;16.57;21.64
67131;HTU21D;54051;53.464;49.532;2023-04-03T14:25:32;16.54;21.56
67131;HTU21D;54051;53.464;49.532;2023-04-03T14:27:58;16.47;21.66
67131;HTU21D;54051;53.464;49.532;2023-04-03T14:30:27;16.42;21.63
67131;HTU21D;54051;53.464;49.532;2023-04-03T14:32:54;16.35;21.84
67131;HTU21D;54051;53.464;49.532;2023-04-03T14:35:21;16.28;22.63
67131;HTU21D;54051;53.464;49.532;2023-04-03T14:41:03;16.14;21.92
67131;HTU21D;54051;53.464;49.532;2023-04-03T14:43:29;16.14;21.60
67131;HTU21D;54051;53.464;49.532;2023-04-03T14:45:56;16.10;22.02
67131;HTU21D;54051;53.464;49.532;2023-04-03T14:48:27;15.92;22.37
67131;HTU21D;54051;53.464;49.532;2023-04-03T14:50:54;15.84;22.66
67131;HTU21D;54051;53.464;49.532;2023-04-03T14:53:20;15.74;22.79
67131;HTU21D;54051;53.464;49.532;2023-04-03T14:55:51;15.68;22.69
67131;HTU21D;54051;53.464;49.532;2023-04-03T14:58:18;15.62;22.76
67131;HTU21D;54051;53.464;49.532;2023-04-03T15:00:45;15.62;22.65
67131;HTU21D;54051;53.464;49.532;2023-04-03T15:03:13;15.61;22.62
67131;HTU21D;54051;53.464;49.532;2023-04-03T15:05:39;15.55;23.22
67131;HTU21D;54051;53.464;49.532;2023-04-03T15:08:21;15.43;23.75
67131;HTU21D;54051;53.464;49.532;2023-04-03T15:10:48;15.33;24.06
67131;HTU21D;54051;53.464;49.532;2023-04-03T15:13:15;15.23;24.40
67131;HTU21D;54051;53.464;49.532;2023-04-03T15:15:42;15.12;25.25
67131;HTU21D;54051;53.464;49.532;2023-04-03T15:18:15;14.98;25.78
67131;HTU21D;54051;53.464;49.532;2023-04-03T15:20:42;14.85;26.43
67131;HTU21D;54051;53.464;49.532;2023-04-03T15:23:11;14.73;27.01
67131;HTU21D;54051;53.464;49.532;2023-04-03T15:25:38;14.59;27.52
67131;HTU21D;54051;53.464;49.532;2023-04-03T15:28:05;14.43;27.87
67131;HTU21D;54051;53.464;49.532;2023-04-03T15:30:32;14.34;28.37
67131;HTU21D;54051;53.464;49.532;2023-04-03T15:32:59;14.23;28.83
67131;HTU21D;54051;53.464;49.532;2023-04-03T15:35:25;14.17;29.23
67131;HTU21D;54051;53.464;49.532;2023-04-03T15:37:51;14.07;29.65
67131;HTU21D;54051;53.464;49.532;2023-04-03T15:40:18;13.99;29.87
67131;HTU21D;54051;53.464;49.532;2023-04-03T15:42:44;13.93;30.22
67131;HTU21D;54051;53.464;49.532;2023-04-03T15:45:10;13.85;30.52
67131;HTU21D;54051;53.464;49.532;2023-04-03T15:47:36;13.78;30.74
67131;HTU21D;54051;53.464;49.532;2023-04-03T15:50:03;13.73;30.99
67131;HTU21D;54051;53.464;49.532;2023-04-03T15:52:32;13.66;31.28
67131;HTU21D;54051;53.464;49.532;2023-04-03T15:54:58;13.60;31.65
67131;HTU21D;54051;53.464;49.532;2023-04-03T15:57:25;13.53;31.79
67131;HTU21D;54051;53.464;49.532;2023-04-03T15:59:52;13.46;32.10
67131;HTU21D;54051;53.464;49.532;2023-04-03T16:02:18;13.40;32.36
67131;HTU21D;54051;53.464;49.532;2023-04-03T16:05:11;13.31;32.16
67131;HTU21D;54051;53.464;49.532;2023-04-03T16:07:39;13.25;32.41
67131;HTU21D;54051;53.464;49.532;2023-04-03T16:10:07;13.20;32.48
67131;HTU21D;54051;53.464;49.532;2023-04-03T16:12:33;13.20;32.67
67131;HTU21D;54051;53.464;49.532;2023-04-03T16:14:59;13.17;32.58
67131;HTU21D;54051;53.464;49.532;2023-04-03T16:17:26;13.17;32.65
67131;HTU21D;54051;53.464;49.532;2023-04-03T16:19:54;13.12;32.67
67131;HTU21D;54051;53.464;49.532;2023-04-03T16:22:23;13.05;32.86
67131;HTU21D;54051;53.464;49.532;2023-04-03T16:24:50;13.01;32.88
67131;HTU21D;54051;53.464;49.532;2023-04-03T16:27:16;12.96;32.84
67131;HTU21D;54051;53.464;49.532;2023-04-03T16:29:42;12.91;32.77
67131;HTU21D;54051;53.464;49.532;2023-04-03T16:32:09;12.91;32.61
67131;HTU21D;54051;53.464;49.532;2023-04-03T16:34:35;12.90;32.93
67131;HTU21D;54051;53.464;49.532;2023-04-03T16:37:01;12.87;32.76
67131;HTU21D;54051;53.464;49.532;2023-04-03T16:39:27;12.87;32.84
67131;HTU21D;54051;53.464;49.532;2023-04-03T16:41:53;12.82;33.03
67131;HTU21D;54051;53.464;49.532;2023-04-03T16:44:19;12.75;33.11
67131;HTU21D;54051;53.464;49.532;2023-04-03T16:46:46;12.72;33.34
67131;HTU21D;54051;53.464;49.532;2023-04-03T16:49:12;12.66;33.20
67131;HTU21D;54051;53.464;49.532;2023-04-03T16:51:38;12.65;33.08
67131;HTU21D;54051;53.464;49.532;2023-04-03T16:54:04;12.61;33.31
67131;HTU21D;54051;53.464;49.532;2023-04-03T16:56:30;12.61;33.25
67131;HTU21D;54051;53.464;49.532;2023-04-03T16:58:57;12.56;33.38
67131;HTU21D;54051;53.464;49.532;2023-04-03T17:01:23;12.53;33.41
67131;HTU21D;54051;53.464;49.532;2023-04-03T17:03:49;12.50;33.63
67131;HTU21D;54051;53.464;49.532;2023-04-03T17:06:18;12.45;33.72
67131;HTU21D;54051;53.464;49.532;2023-04-03T17:08:47;12.41;33.70
67131;HTU21D;54051;53.464;49.532;2023-04-03T17:11:14;12.36;33.53
67131;HTU21D;54051;53.464;49.532;2023-04-03T17:13:40;12.35;33.54